sensor_id;sensor_type;location;lat;lon;timestamp;P1;durP1;ratioP1;P2;durP2;ratioP2
5878;SDS011;2965;42.640;23.370;2022-11-20T05:01:04;2.00;;;1.13;;
5878;SDS011;2965;42.640;23.370;2022-11-20T05:03:31;3.13;;;1.00;;
5878;SDS011;2965;42.640;23.370;2022-11-20T05:06:01;3.83;;;1.20;;
5878;SDS011;2965;42.640;23.370;2022-11-20T05:08:28;1.77;;;1.00;;
5878;SDS011;2965;42.640;23.370;2022-11-20T05:10:58;2.40;;;1.20;;
5878;SDS011;2965;42.640;23.370;2022-11-20T05:13:25;1.53;;;1.03;;
5878;SDS011;2965;42.640;23.370;2022-11-20T05:15:50;1.00;;;1.00;;
5878;SDS011;2965;42.640;23.370;2022-11-20T05:18:15;1.17;;;1.07;;
5878;SDS011;2965;42.640;23.370;2022-11-20T05:20:40;3.70;;;1.00;;
5878;SDS011;2965;42.640;23.370;2022-11-20T05:23:06;6.20;;;1.27;;
5878;SDS011;2965;42.640;23.370;2022-11-20T05:25:31;0.97;;;0.83;;
5878;SDS011;2965;42.640;23.370;2022-11-20T05:27:57;5.30;;;2.53;;
5878;SDS011;2965;42.640;23.370;2022-11-20T05:30:22;1.20;;;1.20;;
5878;SDS011;2965;42.640;23.370;2022-11-20T05:32:47;1.33;;;1.20;;
5878;SDS011;2965;42.640;23.370;2022-11-20T05:35:13;1.50;;;1.40;;
5878;SDS011;2965;42.640;23.370;2022-11-20T05:37:38;1.40;;;1.30;;
5878;SDS011;2965;42.640;23.370;2022-11-20T05:40:03;3.63;;;1.33;;
5878;SDS011;2965;42.640;23.370;2022-11-20T05:42:30;3.00;;;1.50;;
5878;SDS011;2965;42.640;23.370;2022-11-20T05:44:59;2.07;;;1.67;;
5878;SDS011;2965;42.640;23.370;2022-11-20T05:47:26;1.50;;;1.40;;
5878;SDS011;2965;42.640;23.370;2022-11-20T05:49:53;5.60;;;1.43;;
5878;SDS011;2965;42.640;23.370;2022-11-20T05:52:18;1.87;;;1.73;;
5878;SDS011;2965;42.640;23.370;2022-11-20T05:54:44;7.13;;;1.33;;
5878;SDS011;2965;42.640;23.370;2022-11-20T05:57:10;1.67;;;1.57;;
5878;SDS011;2965;42.640;23.370;2022-11-20T05:59:35;5.33;;;1.70;;
5878;SDS011;2965;42.640;23.370;2022-11-20T06:02:00;6.40;;;1.97;;
5878;SDS011;2965;42.640;23.370;2022-11-20T06:04:26;4.67;;;1.60;;
5878;SDS011;2965;42.640;23.370;2022-11-20T06:06:51;5.60;;;1.40;;
5878;SDS011;2965;42.640;23.370;2022-11-20T06:09:17;3.60;;;1.63;;
5878;SDS011;2965;42.640;23.370;2022-11-20T06:11:42;5.53;;;1.80;;
5878;SDS011;2965;42.640;23.370;2022-11-20T06:14:07;2.40;;;1.70;;
5878;SDS011;2965;42.640;23.370;2022-11-20T06:16:33;1.40;;;1.30;;
5878;SDS011;2965;42.640;23.370;2022-11-20T06:18:58;2.50;;;1.90;;
5878;SDS011;2965;42.640;23.370;2022-11-20T06:21:23;5.87;;;1.67;;
5878;SDS011;2965;42.640;23.370;2022-11-20T06:23:49;1.50;;;1.40;;
5878;SDS011;2965;42.640;23.370;2022-11-20T06:26:17;2.23;;;1.83;;
5878;SDS011;2965;42.640;23.370;2022-11-20T06:28:44;1.87;;;1.53;;
5878;SDS011;2965;42.640;23.370;2022-11-20T06:31:11;1.90;;;1.80;;
5878;SDS011;2965;42.640;23.370;2022-11-20T06:33:38;1.23;;;1.23;;
5878;SDS011;2965;42.640;23.370;2022-11-20T06:36:04;1.60;;;1.50;;
5878;SDS011;2965;42.640;23.370;2022-11-20T06:38:30;3.43;;;1.53;;
5878;SDS011;2965;42.640;23.370;2022-11-20T06:40:55;4.60;;;1.33;;
5878;SDS011;2965;42.640;23.370;2022-11-20T06:43:21;1.50;;;1.40;;
5878;SDS011;2965;42.640;23.370;2022-11-20T06:45:51;3.33;;;1.73;;
5878;SDS011;2965;42.640;23.370;2022-11-20T06:48:21;6.40;;;1.73;;
5878;SDS011;2965;42.640;23.370;2022-11-20T06:50:47;2.33;;;2.13;;
5878;SDS011;2965;42.640;23.370;2022-11-20T06:53:13;2.40;;;1.30;;
5878;SDS011;2965;42.640;23.370;2022-11-20T06:55:41;2.03;;;1.60;;
5878;SDS011;2965;42.640;23.370;2022-11-20T06:58:08;2.17;;;1.30;;
5878;SDS011;2965;42.640;23.370;2022-11-20T07:00:34;1.90;;;1.53;;
5878;SDS011;2965;42.640;23.370;2022-11-20T07:03:02;3.80;;;2.07;;
5878;SDS011;2965;42.640;23.370;2022-11-20T07:05:28;6.00;;;2.13;;
5878;SDS011;2965;42.640;23.370;2022-11-20T07:07:55;4.23;;;1.80;;
5878;SDS011;2965;42.640;23.370;2022-11-20T07:10:21;2.63;;;1.30;;
5878;SDS011;2965;42.640;23.370;2022-11-20T07:12:50;10.93;;;3.03;;
5878;SDS011;2965;42.640;23.370;2022-11-20T07:15:17;3.10;;;2.17;;
5878;SDS011;2965;42.640;23.370;2022-11-20T07:17:43;2.60;;;2.40;;
5878;SDS011;2965;42.640;23.370;2022-11-20T07:20:08;6.50;;;2.87;;
5878;SDS011;2965;42.640;23.370;2022-11-20T07:22:34;4.30;;;2.13;;
5878;SDS011;2965;42.640;23.370;2022-11-20T07:24:59;6.97;;;3.33;;
5878;SDS011;2965;42.640;23.370;2022-11-20T07:27:25;1.93;;;1.83;;
5878;SDS011;2965;42.640;23.370;2022-11-20T07:29:50;1.87;;;1.23;;
5878;SDS011;2965;42.640;23.370;2022-11-20T07:32:16;1.57;;;1.47;;
5878;SDS011;2965;42.640;23.370;2022-11-20T07:34:41;3.73;;;1.80;;
5878;SDS011;2965;42.640;23.370;2022-11-20T07:37:06;3.07;;;2.00;;
5878;SDS011;2965;42.640;23.370;2022-11-20T07:39:32;1.80;;;1.57;;
5878;SDS011;2965;42.640;23.370;2022-11-20T07:41:57;2.57;;;1.80;;
5878;SDS011;2965;42.640;23.370;2022-11-20T07:44:22;4.73;;;1.73;;
5878;SDS011;2965;42.640;23.370;2022-11-20T07:46:48;3.77;;;1.50;;
5878;SDS011;2965;42.640;23.370;2022-11-20T07:49:13;5.40;;;1.90;;
5878;SDS011;2965;42.640;23.370;2022-11-20T07:51:38;2.90;;;1.60;;
5878;SDS011;2965;42.640;23.370;2022-11-20T07:54:04;4.20;;;1.73;;
5878;SDS011;2965;42.640;23.370;2022-11-20T07:56:29;4.40;;;1.70;;
5878;SDS011;2965;42.640;23.370;2022-11-20T07:58:55;4.53;;;1.77;;
5878;SDS011;2965;42.640;23.370;2022-11-20T08:01:20;5.03;;;1.70;;
5878;SDS011;2965;42.640;23.370;2022-11-20T08:03:45;3.37;;;1.67;;
5878;SDS011;2965;42.640;23.370;2022-11-20T08:06:11;3.10;;;1.70;;
5878;SDS011;2965;42.640;23.370;2022-11-20T08:08:36;4.27;;;1.20;;
5878;SDS011;2965;42.640;23.370;2022-11-20T08:11:04;3.80;;;1.50;;
5878;SDS011;2965;42.640;23.370;2022-11-20T08:13:53;12.13;;;1.87;;
5878;SDS011;2965;42.640;23.370;2022-11-20T08:16:36;2.60;;;1.60;;
5878;SDS011;2965;42.640;23.370;2022-11-20T08:19:02;1.70;;;1.60;;
5878;SDS011;2965;42.640;23.370;2022-11-20T08:21:27;6.13;;;1.90;;
5878;SDS011;2965;42.640;23.370;2022-11-20T08:23:53;2.20;;;2.10;;
5878;SDS011;2965;42.640;23.370;2022-11-20T08:26:18;8.07;;;1.90;;
5878;SDS011;2965;42.640;23.370;2022-11-20T08:28:43;5.10;;;1.83;;
5878;SDS011;2965;42.640;23.370;2022-11-20T08:31:10;6.10;;;2.50;;
5878;SDS011;2965;42.640;23.370;2022-11-20T08:33:35;2.67;;;2.37;;
5878;SDS011;2965;42.640;23.370;2022-11-20T08:36:01;2.40;;;1.30;;
5878;SDS011;2965;42.640;23.370;2022-11-20T08:38:29;2.43;;;2.00;;
5878;SDS011;2965;42.640;23.370;2022-11-20T08:40:58;2.50;;;2.30;;
5878;SDS011;2965;42.640;23.370;2022-11-20T08:43:44;6.43;;;2.00;;
5878;SDS011;2965;42.640;23.370;2022-11-20T08:46:10;3.37;;;2.17;;
5878;SDS011;2965;42.640;23.370;2022-11-20T08:48:35;5.70;;;2.83;;
5878;SDS011;2965;42.640;23.370;2022-11-20T08:51:00;4.43;;;1.87;;
5878;SDS011;2965;42.640;23.370;2022-11-20T08:53:26;3.20;;;1.90;;
5878;SDS011;2965;42.640;23.370;2022-11-20T08:55:52;4.20;;;1.60;;
5878;SDS011;2965;42.640;23.370;2022-11-20T08:58:17;3.23;;;1.97;;
5878;SDS011;2965;42.640;23.370;2022-11-20T09:00:43;3.37;;;1.30;;
5878;SDS011;2965;42.640;23.370;2022-11-20T09:03:08;3.53;;;1.60;;
5878;SDS011;2965;42.640;23.370;2022-11-20T09:05:34;3.00;;;2.13;;
5878;SDS011;2965;42.640;23.370;2022-11-20T09:07:59;11.70;;;1.83;;
5878;SDS011;2965;42.640;23.370;2022-11-20T09:10:25;3.40;;;2.47;;
5878;SDS011;2965;42.640;23.370;2022-11-20T09:12:51;5.60;;;2.60;;
5878;SDS011;2965;42.640;23.370;2022-11-20T09:15:17;5.40;;;2.20;;
5878;SDS011;2965;42.640;23.370;2022-11-20T09:17:49;2.50;;;2.40;;
5878;SDS011;2965;42.640;23.370;2022-11-20T09:20:16;5.17;;;3.20;;
5878;SDS011;2965;42.640;23.370;2022-11-20T09:22:41;4.40;;;2.60;;
5878;SDS011;2965;42.640;23.370;2022-11-20T09:25:06;8.00;;;3.03;;
5878;SDS011;2965;42.640;23.370;2022-11-20T09:27:32;5.57;;;3.40;;
5878;SDS011;2965;42.640;23.370;2022-11-20T09:29:58;3.67;;;3.47;;
5878;SDS011;2965;42.640;23.370;2022-11-20T09:32:23;3.93;;;3.60;;
5878;SDS011;2965;42.640;23.370;2022-11-20T09:34:48;5.63;;;2.83;;
5878;SDS011;2965;42.640;23.370;2022-11-20T09:37:13;5.13;;;3.57;;
5878;SDS011;2965;42.640;23.370;2022-11-20T09:39:39;3.50;;;3.30;;
5878;SDS011;2965;42.640;23.370;2022-11-20T10:04:21;6.23;;;4.30;;
5878;SDS011;2965;42.640;23.370;2022-11-20T10:06:49;4.33;;;3.93;;
5878;SDS011;2965;42.640;23.370;2022-11-20T10:09:25;3.70;;;3.40;;
5878;SDS011;2965;42.640;23.370;2022-11-20T10:22:21;4.43;;;2.33;;
5878;SDS011;2965;42.640;23.370;2022-11-20T10:30:17;8.70;;;2.53;;
5878;SDS011;2965;42.640;23.370;2022-11-20T10:32:52;6.17;;;3.47;;
5878;SDS011;2965;42.640;23.370;2022-11-20T10:35:25;2.80;;;2.30;;
5878;SDS011;2965;42.640;23.370;2022-11-20T10:38:00;4.47;;;2.73;;
5878;SDS011;2965;42.640;23.370;2022-11-20T10:43:24;7.77;;;3.27;;
5878;SDS011;2965;42.640;23.370;2022-11-20T10:46:05;5.67;;;3.70;;
5878;SDS011;2965;42.640;23.370;2022-11-20T10:48:35;4.90;;;4.10;;
5878;SDS011;2965;42.640;23.370;2022-11-20T10:51:49;9.23;;;3.90;;
5878;SDS011;2965;42.640;23.370;2022-11-20T10:56:50;4.30;;;4.00;;
5878;SDS011;2965;42.640;23.370;2022-11-20T10:59:27;12.37;;;3.67;;
5878;SDS011;2965;42.640;23.370;2022-11-20T11:07:08;8.40;;;3.87;;
5878;SDS011;2965;42.640;23.370;2022-11-20T11:09:39;8.90;;;3.90;;
5878;SDS011;2965;42.640;23.370;2022-11-20T11:12:09;4.87;;;3.60;;
5878;SDS011;2965;42.640;23.370;2022-11-20T11:14:42;5.60;;;4.30;;
5878;SDS011;2965;42.640;23.370;2022-11-20T11:19:39;8.93;;;4.37;;
5878;SDS011;2965;42.640;23.370;2022-11-20T11:22:04;3.90;;;3.70;;
5878;SDS011;2965;42.640;23.370;2022-11-20T11:24:43;5.77;;;3.10;;
5878;SDS011;2965;42.640;23.370;2022-11-20T11:27:17;4.80;;;3.87;;
5878;SDS011;2965;42.640;23.370;2022-11-20T11:29:42;5.27;;;3.23;;
5878;SDS011;2965;42.640;23.370;2022-11-20T11:32:11;1.70;;;1.60;;
5878;SDS011;2965;42.640;23.370;2022-11-20T11:34:36;1.03;;;1.03;;
5878;SDS011;2965;42.640;23.370;2022-11-20T11:37:02;1.13;;;1.13;;
5878;SDS011;2965;42.640;23.370;2022-11-20T11:39:29;7.90;;;1.27;;
5878;SDS011;2965;42.640;23.370;2022-11-20T11:41:56;1.03;;;0.60;;
5878;SDS011;2965;42.640;23.370;2022-11-20T11:50:17;2.30;;;0.80;;
5878;SDS011;2965;42.640;23.370;2022-11-20T11:52:54;5.53;;;1.00;;
5878;SDS011;2965;42.640;23.370;2022-11-20T11:55:58;1.03;;;0.60;;
5878;SDS011;2965;42.640;23.370;2022-11-20T11:58:44;2.10;;;1.00;;
5878;SDS011;2965;42.640;23.370;2022-11-20T12:03:58;1.83;;;0.83;;
5878;SDS011;2965;42.640;23.370;2022-11-20T12:06:29;10.63;;;1.50;;
5878;SDS011;2965;42.640;23.370;2022-11-20T12:13:55;0.80;;;0.70;;
5878;SDS011;2965;42.640;23.370;2022-11-20T12:16:28;1.03;;;0.93;;
5878;SDS011;2965;42.640;23.370;2022-11-20T12:18:59;2.77;;;0.80;;
5878;SDS011;2965;42.640;23.370;2022-11-20T12:21:31;0.90;;;0.50;;
5878;SDS011;2965;42.640;23.370;2022-11-20T12:24:08;2.40;;;0.70;;
5878;SDS011;2965;42.640;23.370;2022-11-20T12:26:49;0.83;;;0.83;;
5878;SDS011;2965;42.640;23.370;2022-11-20T12:38:06;0.80;;;0.70;;
5878;SDS011;2965;42.640;23.370;2022-11-20T12:43:42;0.80;;;0.67;;
5878;SDS011;2965;42.640;23.370;2022-11-20T12:51:47;5.33;;;1.20;;
5878;SDS011;2965;42.640;23.370;2022-11-20T12:57:09;5.23;;;1.13;;
5878;SDS011;2965;42.640;23.370;2022-11-20T13:00:35;2.53;;;1.57;;
5878;SDS011;2965;42.640;23.370;2022-11-20T13:05:21;3.63;;;1.70;;
5878;SDS011;2965;42.640;23.370;2022-11-20T13:07:53;2.40;;;1.30;;
5878;SDS011;2965;42.640;23.370;2022-11-20T13:13:18;2.47;;;1.77;;
5878;SDS011;2965;42.640;23.370;2022-11-20T13:16:07;3.10;;;2.90;;
5878;SDS011;2965;42.640;23.370;2022-11-20T13:18:39;5.80;;;1.90;;
5878;SDS011;2965;42.640;23.370;2022-11-20T13:21:17;2.20;;;1.67;;
5878;SDS011;2965;42.640;23.370;2022-11-20T13:23:44;3.20;;;2.07;;
5878;SDS011;2965;42.640;23.370;2022-11-20T13:28:44;5.47;;;2.13;;
5878;SDS011;2965;42.640;23.370;2022-11-20T13:31:29;4.43;;;2.30;;
5878;SDS011;2965;42.640;23.370;2022-11-20T13:33:57;3.40;;;2.00;;
5878;SDS011;2965;42.640;23.370;2022-11-20T13:36:25;3.87;;;2.50;;
5878;SDS011;2965;42.640;23.370;2022-11-20T13:38:53;2.80;;;2.67;;
5878;SDS011;2965;42.640;23.370;2022-11-20T13:41:26;3.23;;;2.57;;
5878;SDS011;2965;42.640;23.370;2022-11-20T13:44:15;4.50;;;2.23;;
5878;SDS011;2965;42.640;23.370;2022-11-20T13:46:50;3.47;;;2.10;;
5878;SDS011;2965;42.640;23.370;2022-11-20T13:54:59;3.53;;;2.33;;
5878;SDS011;2965;42.640;23.370;2022-11-20T14:00:09;3.50;;;2.20;;
5878;SDS011;2965;42.640;23.370;2022-11-20T14:02:44;3.07;;;1.83;;
5878;SDS011;2965;42.640;23.370;2022-11-20T14:05:23;2.20;;;2.00;;
5878;SDS011;2965;42.640;23.370;2022-11-20T14:07:49;4.40;;;2.50;;
5878;SDS011;2965;42.640;23.370;2022-11-20T14:10:27;1.93;;;1.80;;
5878;SDS011;2965;42.640;23.370;2022-11-20T14:12:53;5.00;;;3.93;;
5878;SDS011;2965;42.640;23.370;2022-11-20T14:15:29;3.03;;;2.83;;
5878;SDS011;2965;42.640;23.370;2022-11-20T14:17:57;8.97;;;2.20;;
5878;SDS011;2965;42.640;23.370;2022-11-20T14:20:24;2.20;;;2.10;;
5878;SDS011;2965;42.640;23.370;2022-11-20T14:22:53;2.20;;;2.10;;
5878;SDS011;2965;42.640;23.370;2022-11-20T14:25:20;2.70;;;2.50;;
5878;SDS011;2965;42.640;23.370;2022-11-20T14:27:57;4.53;;;2.63;;
5878;SDS011;2965;42.640;23.370;2022-11-20T14:30:26;11.43;;;2.80;;
5878;SDS011;2965;42.640;23.370;2022-11-20T14:32:55;3.00;;;2.80;;
5878;SDS011;2965;42.640;23.370;2022-11-20T14:35:34;3.60;;;3.40;;
5878;SDS011;2965;42.640;23.370;2022-11-20T14:38:11;5.10;;;3.93;;
5878;SDS011;2965;42.640;23.370;2022-11-20T14:40:38;3.13;;;2.97;;
5878;SDS011;2965;42.640;23.370;2022-11-20T14:43:26;2.40;;;2.20;;
5878;SDS011;2965;42.640;23.370;2022-11-20T14:48:39;6.17;;;3.80;;
5878;SDS011;2965;42.640;23.370;2022-11-20T14:51:11;7.47;;;4.17;;
5878;SDS011;2965;42.640;23.370;2022-11-20T14:53:48;3.57;;;3.13;;
5878;SDS011;2965;42.640;23.370;2022-11-20T14:56:13;3.83;;;2.90;;
5878;SDS011;2965;42.640;23.370;2022-11-20T14:58:54;3.13;;;2.70;;
5878;SDS011;2965;42.640;23.370;2022-11-20T15:01:25;6.37;;;2.97;;
5878;SDS011;2965;42.640;23.370;2022-11-20T15:04:01;8.03;;;6.30;;
5878;SDS011;2965;42.640;23.370;2022-11-20T15:06:31;9.57;;;6.17;;
5878;SDS011;2965;42.640;23.370;2022-11-20T15:08:56;7.27;;;6.07;;
5878;SDS011;2965;42.640;23.370;2022-11-20T15:11:32;13.13;;;5.60;;
5878;SDS011;2965;42.640;23.370;2022-11-20T15:14:03;7.43;;;4.63;;
5878;SDS011;2965;42.640;23.370;2022-11-20T15:16:31;5.87;;;4.30;;
5878;SDS011;2965;42.640;23.370;2022-11-20T15:18:56;5.77;;;5.30;;
5878;SDS011;2965;42.640;23.370;2022-11-20T15:21:22;16.47;;;8.10;;
5878;SDS011;2965;42.640;23.370;2022-11-20T15:23:48;4.97;;;4.70;;
5878;SDS011;2965;42.640;23.370;2022-11-20T15:26:15;10.37;;;6.00;;
5878;SDS011;2965;42.640;23.370;2022-11-20T15:28:47;20.30;;;7.90;;
5878;SDS011;2965;42.640;23.370;2022-11-20T15:31:16;22.30;;;8.80;;
5878;SDS011;2965;42.640;23.370;2022-11-20T15:33:44;26.60;;;8.57;;
5878;SDS011;2965;42.640;23.370;2022-11-20T15:36:10;14.97;;;5.40;;
5878;SDS011;2965;42.640;23.370;2022-11-20T15:38:35;27.70;;;6.07;;
5878;SDS011;2965;42.640;23.370;2022-11-20T15:41:01;29.23;;;10.80;;
5878;SDS011;2965;42.640;23.370;2022-11-20T15:43:27;23.20;;;9.60;;
5878;SDS011;2965;42.640;23.370;2022-11-20T15:45:53;5.27;;;4.77;;
5878;SDS011;2965;42.640;23.370;2022-11-20T15:48:40;2.60;;;2.40;;
5878;SDS011;2965;42.640;23.370;2022-11-20T15:51:15;2.60;;;2.50;;
5878;SDS011;2965;42.640;23.370;2022-11-20T15:53:54;5.87;;;3.47;;
5878;SDS011;2965;42.640;23.370;2022-11-20T15:56:20;3.23;;;2.83;;
5878;SDS011;2965;42.640;23.370;2022-11-20T15:58:46;3.73;;;3.20;;
5878;SDS011;2965;42.640;23.370;2022-11-20T16:01:12;4.50;;;3.13;;
5878;SDS011;2965;42.640;23.370;2022-11-20T16:03:40;7.63;;;2.00;;
5878;SDS011;2965;42.640;23.370;2022-11-20T16:06:06;2.10;;;2.00;;
5878;SDS011;2965;42.640;23.370;2022-11-20T16:08:31;2.77;;;2.60;;
5878;SDS011;2965;42.640;23.370;2022-11-20T16:10:57;2.40;;;2.30;;
5878;SDS011;2965;42.640;23.370;2022-11-20T16:13:22;4.00;;;2.43;;
5878;SDS011;2965;42.640;23.370;2022-11-20T16:16:07;5.63;;;2.30;;
5878;SDS011;2965;42.640;23.370;2022-11-20T16:18:36;2.43;;;1.90;;
5878;SDS011;2965;42.640;23.370;2022-11-20T16:21:02;4.30;;;2.20;;
5878;SDS011;2965;42.640;23.370;2022-11-20T16:23:27;2.47;;;2.27;;
5878;SDS011;2965;42.640;23.370;2022-11-20T16:25:53;3.33;;;2.50;;
5878;SDS011;2965;42.640;23.370;2022-11-20T16:28:19;2.40;;;2.20;;
5878;SDS011;2965;42.640;23.370;2022-11-20T16:30:44;3.20;;;2.10;;
5878;SDS011;2965;42.640;23.370;2022-11-20T16:33:13;2.10;;;2.00;;
5878;SDS011;2965;42.640;23.370;2022-11-20T16:35:40;3.40;;;2.50;;
5878;SDS011;2965;42.640;23.370;2022-11-20T16:38:06;3.53;;;3.03;;
5878;SDS011;2965;42.640;23.370;2022-11-20T16:40:31;2.60;;;2.03;;
5878;SDS011;2965;42.640;23.370;2022-11-20T16:42:57;2.47;;;2.37;;
5878;SDS011;2965;42.640;23.370;2022-11-20T16:45:30;7.10;;;2.87;;
5878;SDS011;2965;42.640;23.370;2022-11-20T16:47:56;3.23;;;2.30;;
5878;SDS011;2965;42.640;23.370;2022-11-20T16:50:22;2.80;;;1.90;;
5878;SDS011;2965;42.640;23.370;2022-11-20T16:52:47;3.03;;;2.83;;
5878;SDS011;2965;42.640;23.370;2022-11-20T16:55:13;2.23;;;1.90;;
5878;SDS011;2965;42.640;23.370;2022-11-20T16:57:38;5.20;;;3.13;;
5878;SDS011;2965;42.640;23.370;2022-11-20T17:00:06;2.87;;;2.77;;
5878;SDS011;2965;42.640;23.370;2022-11-20T17:02:32;2.10;;;1.83;;
5878;SDS011;2965;42.640;23.370;2022-11-20T17:04:57;5.30;;;2.53;;
5878;SDS011;2965;42.640;23.370;2022-11-20T17:07:23;2.60;;;2.00;;
5878;SDS011;2965;42.640;23.370;2022-11-20T17:09:48;3.33;;;2.00;;
5878;SDS011;2965;42.640;23.370;2022-11-20T17:12:14;2.80;;;2.27;;
5878;SDS011;2965;42.640;23.370;2022-11-20T17:14:39;9.07;;;1.93;;
5878;SDS011;2965;42.640;23.370;2022-11-20T17:17:04;4.20;;;1.90;;
5878;SDS011;2965;42.640;23.370;2022-11-20T17:19:30;3.53;;;1.30;;
5878;SDS011;2965;42.640;23.370;2022-11-20T17:21:55;2.90;;;2.10;;
5878;SDS011;2965;42.640;23.370;2022-11-20T17:24:20;3.20;;;2.40;;
5878;SDS011;2965;42.640;23.370;2022-11-20T17:26:46;1.53;;;1.43;;
5878;SDS011;2965;42.640;23.370;2022-11-20T17:29:13;1.40;;;1.30;;
5878;SDS011;2965;42.640;23.370;2022-11-20T17:31:40;3.17;;;3.00;;
5878;SDS011;2965;42.640;23.370;2022-11-20T17:34:08;3.23;;;3.13;;
5878;SDS011;2965;42.640;23.370;2022-11-20T17:36:36;5.43;;;3.63;;
5878;SDS011;2965;42.640;23.370;2022-11-20T17:39:04;3.10;;;3.00;;
5878;SDS011;2965;42.640;23.370;2022-11-20T17:41:30;2.50;;;2.30;;
5878;SDS011;2965;42.640;23.370;2022-11-20T17:43:56;8.20;;;3.07;;
5878;SDS011;2965;42.640;23.370;2022-11-20T17:46:24;3.10;;;2.90;;
5878;SDS011;2965;42.640;23.370;2022-11-20T17:48:59;2.60;;;2.50;;
5878;SDS011;2965;42.640;23.370;2022-11-20T17:51:26;2.83;;;2.73;;
5878;SDS011;2965;42.640;23.370;2022-11-20T17:53:55;4.60;;;3.10;;
5878;SDS011;2965;42.640;23.370;2022-11-20T17:59:08;3.13;;;3.00;;
5878;SDS011;2965;42.640;23.370;2022-11-20T18:01:35;3.00;;;2.90;;
5878;SDS011;2965;42.640;23.370;2022-11-20T18:04:01;5.40;;;3.90;;
5878;SDS011;2965;42.640;23.370;2022-11-20T18:06:28;3.63;;;3.40;;
5878;SDS011;2965;42.640;23.370;2022-11-20T18:08:55;2.80;;;2.70;;
5878;SDS011;2965;42.640;23.370;2022-11-20T18:11:30;3.03;;;2.83;;
5878;SDS011;2965;42.640;23.370;2022-11-20T18:14:00;4.20;;;3.10;;
5878;SDS011;2965;42.640;23.370;2022-11-20T18:16:47;3.40;;;3.10;;
5878;SDS011;2965;42.640;23.370;2022-11-20T18:19:17;7.00;;;4.63;;
5878;SDS011;2965;42.640;23.370;2022-11-20T18:21:45;11.73;;;3.10;;
5878;SDS011;2965;42.640;23.370;2022-11-20T18:24:10;3.10;;;2.90;;
5878;SDS011;2965;42.640;23.370;2022-11-20T18:26:36;4.30;;;2.40;;
5878;SDS011;2965;42.640;23.370;2022-11-20T18:29:02;4.73;;;3.20;;
5878;SDS011;2965;42.640;23.370;2022-11-20T18:31:27;2.67;;;2.47;;
5878;SDS011;2965;42.640;23.370;2022-11-20T18:33:53;5.57;;;2.60;;
5878;SDS011;2965;42.640;23.370;2022-11-20T18:36:20;2.23;;;2.00;;
5878;SDS011;2965;42.640;23.370;2022-11-20T18:38:48;2.50;;;2.30;;
5878;SDS011;2965;42.640;23.370;2022-11-20T18:41:16;2.60;;;2.00;;
5878;SDS011;2965;42.640;23.370;2022-11-20T18:44:01;1.83;;;1.73;;
5878;SDS011;2965;42.640;23.370;2022-11-20T18:46:47;2.00;;;1.90;;
5878;SDS011;2965;42.640;23.370;2022-11-20T18:49:12;2.73;;;2.63;;
5878;SDS011;2965;42.640;23.370;2022-11-20T18:51:39;2.40;;;2.30;;
5878;SDS011;2965;42.640;23.370;2022-11-20T18:54:05;3.03;;;2.73;;
5878;SDS011;2965;42.640;23.370;2022-11-20T18:56:31;3.10;;;2.53;;
5878;SDS011;2965;42.640;23.370;2022-11-20T18:58:58;2.33;;;2.23;;
5878;SDS011;2965;42.640;23.370;2022-11-20T19:01:24;2.53;;;2.43;;
5878;SDS011;2965;42.640;23.370;2022-11-20T19:03:49;2.50;;;2.40;;
5878;SDS011;2965;42.640;23.370;2022-11-20T19:06:15;3.57;;;3.13;;
5878;SDS011;2965;42.640;23.370;2022-11-20T19:08:41;3.80;;;3.50;;
5878;SDS011;2965;42.640;23.370;2022-11-20T19:11:07;6.20;;;3.80;;
5878;SDS011;2965;42.640;23.370;2022-11-20T19:13:34;4.67;;;4.37;;
5878;SDS011;2965;42.640;23.370;2022-11-20T19:16:01;8.27;;;4.53;;
5878;SDS011;2965;42.640;23.370;2022-11-20T19:18:27;5.17;;;4.87;;
5878;SDS011;2965;42.640;23.370;2022-11-20T19:20:53;6.33;;;5.70;;
5878;SDS011;2965;42.640;23.370;2022-11-20T19:23:18;5.87;;;5.37;;
5878;SDS011;2965;42.640;23.370;2022-11-20T19:25:46;7.30;;;5.93;;
5878;SDS011;2965;42.640;23.370;2022-11-20T19:28:11;6.10;;;5.70;;
5878;SDS011;2965;42.640;23.370;2022-11-20T19:30:36;6.13;;;5.53;;
5878;SDS011;2965;42.640;23.370;2022-11-20T19:33:02;5.73;;;5.23;;
5878;SDS011;2965;42.640;23.370;2022-11-20T19:35:28;7.67;;;5.77;;
5878;SDS011;2965;42.640;23.370;2022-11-20T19:37:53;7.10;;;6.13;;
5878;SDS011;2965;42.640;23.370;2022-11-20T19:40:21;5.10;;;4.67;;
5878;SDS011;2965;42.640;23.370;2022-11-20T19:42:47;6.43;;;4.50;;
5878;SDS011;2965;42.640;23.370;2022-11-20T19:45:13;8.03;;;3.50;;
5878;SDS011;2965;42.640;23.370;2022-11-20T19:47:38;4.00;;;3.70;;
5878;SDS011;2965;42.640;23.370;2022-11-20T19:50:03;3.33;;;3.13;;
5878;SDS011;2965;42.640;23.370;2022-11-20T19:52:29;6.50;;;3.07;;
5878;SDS011;2965;42.640;23.370;2022-11-20T19:54:54;3.33;;;3.23;;
5878;SDS011;2965;42.640;23.370;2022-11-20T19:57:20;4.80;;;2.47;;
5878;SDS011;2965;42.640;23.370;2022-11-20T19:59:45;5.47;;;2.30;;
5878;SDS011;2965;42.640;23.370;2022-11-20T20:02:10;4.40;;;4.03;;
5878;SDS011;2965;42.640;23.370;2022-11-20T20:04:36;2.50;;;2.40;;
5878;SDS011;2965;42.640;23.370;2022-11-20T20:07:01;2.23;;;2.13;;
5878;SDS011;2965;42.640;23.370;2022-11-20T20:09:27;2.50;;;2.30;;
5878;SDS011;2965;42.640;23.370;2022-11-20T20:11:54;6.23;;;2.20;;
5878;SDS011;2965;42.640;23.370;2022-11-20T20:14:20;3.57;;;2.37;;
5878;SDS011;2965;42.640;23.370;2022-11-20T20:16:45;1.80;;;1.70;;
5878;SDS011;2965;42.640;23.370;2022-11-20T20:19:12;1.40;;;1.13;;
5878;SDS011;2965;42.640;23.370;2022-11-20T20:21:39;1.50;;;1.40;;
5878;SDS011;2965;42.640;23.370;2022-11-20T20:24:05;2.60;;;1.37;;
5878;SDS011;2965;42.640;23.370;2022-11-20T20:26:31;2.43;;;2.33;;
5878;SDS011;2965;42.640;23.370;2022-11-20T20:28:58;1.30;;;1.30;;
5878;SDS011;2965;42.640;23.370;2022-11-20T20:31:25;1.90;;;1.80;;
5878;SDS011;2965;42.640;23.370;2022-11-20T20:33:52;1.53;;;1.43;;
5878;SDS011;2965;42.640;23.370;2022-11-20T20:36:18;2.27;;;2.17;;
5878;SDS011;2965;42.640;23.370;2022-11-20T20:38:45;1.80;;;1.37;;
5878;SDS011;2965;42.640;23.370;2022-11-20T20:41:12;1.73;;;1.60;;
5878;SDS011;2965;42.640;23.370;2022-11-20T20:43:38;1.67;;;1.57;;
5878;SDS011;2965;42.640;23.370;2022-11-20T20:46:22;4.80;;;1.40;;
5878;SDS011;2965;42.640;23.370;2022-11-20T20:48:48;1.57;;;1.47;;
5878;SDS011;2965;42.640;23.370;2022-11-20T20:51:13;1.70;;;1.37;;
5878;SDS011;2965;42.640;23.370;2022-11-20T20:53:38;1.80;;;1.70;;
5878;SDS011;2965;42.640;23.370;2022-11-20T20:56:04;1.70;;;1.17;;
5878;SDS011;2965;42.640;23.370;2022-11-20T20:58:29;2.70;;;1.40;;
5878;SDS011;2965;42.640;23.370;2022-11-20T21:01:09;1.53;;;1.43;;
5878;SDS011;2965;42.640;23.370;2022-11-20T21:03:36;3.63;;;1.60;;
5878;SDS011;2965;42.640;23.370;2022-11-20T21:06:02;2.37;;;2.17;;
5878;SDS011;2965;42.640;23.370;2022-11-20T21:08:29;2.13;;;1.83;;
5878;SDS011;2965;42.640;23.370;2022-11-20T21:10:59;8.03;;;1.70;;
5878;SDS011;2965;42.640;23.370;2022-11-20T21:13:27;2.60;;;2.40;;
5878;SDS011;2965;42.640;23.370;2022-11-20T21:15:53;1.83;;;1.13;;
5878;SDS011;2965;42.640;23.370;2022-11-20T21:18:20;14.10;;;1.80;;
5878;SDS011;2965;42.640;23.370;2022-11-20T21:20:46;1.30;;;1.20;;
5878;SDS011;2965;42.640;23.370;2022-11-20T21:23:31;1.37;;;1.27;;
5878;SDS011;2965;42.640;23.370;2022-11-20T21:26:01;1.33;;;1.30;;
5878;SDS011;2965;42.640;23.370;2022-11-20T21:28:29;1.60;;;1.50;;
5878;SDS011;2965;42.640;23.370;2022-11-20T21:31:05;1.57;;;1.47;;
5878;SDS011;2965;42.640;23.370;2022-11-20T21:33:38;2.13;;;1.87;;
5878;SDS011;2965;42.640;23.370;2022-11-20T21:36:08;26.90;;;15.23;;
5878;SDS011;2965;42.640;23.370;2022-11-20T21:38:34;3.73;;;3.53;;
5878;SDS011;2965;42.640;23.370;2022-11-20T21:41:01;2.03;;;1.80;;
5878;SDS011;2965;42.640;23.370;2022-11-20T21:43:28;2.10;;;2.00;;
5878;SDS011;2965;42.640;23.370;2022-11-20T21:45:58;2.00;;;1.90;;
5878;SDS011;2965;42.640;23.370;2022-11-20T21:48:26;18.13;;;2.37;;
5878;SDS011;2965;42.640;23.370;2022-11-20T21:50:53;2.33;;;2.23;;
5878;SDS011;2965;42.640;23.370;2022-11-20T21:53:18;8.83;;;2.63;;
5878;SDS011;2965;42.640;23.370;2022-11-20T21:55:51;2.30;;;2.20;;